createdAt,value
2018-12-06T00:02:15.494Z,16.48
2018-12-06T00:04:43.832Z,13.48
2018-12-06T00:07:12.226Z,15.35
2018-12-06T00:09:40.637Z,14.98
2018-12-06T00:12:09.717Z,16.12
2018-12-06T00:14:38.100Z,17.65
2018-12-06T00:17:06.447Z,14.28
2018-12-06T00:19:34.853Z,14.38
2018-12-06T00:22:03.293Z,12.55
2018-12-06T00:24:31.763Z,17.20
2018-12-06T00:27:01.349Z,15.60
2018-12-06T00:29:29.767Z,16.67
2018-12-06T00:31:58.142Z,13.65
2018-12-06T00:34:26.517Z,15.78
2018-12-06T00:36:54.963Z,17.48
2018-12-06T00:39:23.374Z,13.68
2018-12-06T00:41:51.727Z,22.10
2018-12-06T00:44:20.094Z,15.58
2018-12-06T00:46:48.478Z,14.63
2018-12-06T00:49:16.916Z,17.52
2018-12-06T00:51:45.285Z,12.70
2018-12-06T00:54:13.833Z,14.60
2018-12-06T00:56:42.211Z,14.28
2018-12-06T00:59:10.654Z,15.65
2018-12-06T01:01:39.233Z,13.43
2018-12-06T01:04:07.803Z,14.07
2018-12-06T01:06:36.328Z,15.53
2018-12-06T01:09:05.875Z,17.55
2018-12-06T01:11:34.257Z,13.85
2018-12-06T01:14:02.737Z,17.02
2018-12-06T01:16:31.188Z,12.88
2018-12-06T01:18:59.697Z,14.18
2018-12-06T01:21:28.097Z,13.95
2018-12-06T01:23:56.443Z,17.12
2018-12-06T01:26:25.143Z,13.05
2018-12-06T01:28:53.521Z,16.60
2018-12-06T01:31:21.993Z,15.85
2018-12-06T01:33:50.401Z,15.93
2018-12-06T01:36:18.835Z,20.40
2018-12-06T01:38:47.182Z,16.25
2018-12-06T01:41:15.650Z,15.35
2018-12-06T01:43:43.994Z,16.70
2018-12-06T01:46:12.356Z,18.20
2018-12-06T01:48:41.205Z,20.52
2018-12-06T01:51:09.675Z,17.12
2018-12-06T01:53:38.012Z,14.95
2018-12-06T01:56:06.399Z,15.45
2018-12-06T01:58:34.760Z,14.47
2018-12-06T02:01:03.116Z,16.62
2018-12-06T02:03:31.493Z,17.30
2018-12-06T02:05:59.946Z,18.70
2018-12-06T02:08:28.306Z,15.40
2018-12-06T02:10:56.659Z,15.10
2018-12-06T02:13:25.049Z,16.12
2018-12-06T02:15:53.428Z,17.60
2018-12-06T02:18:21.860Z,17.50
2018-12-06T02:20:50.182Z,18.35
2018-12-06T02:23:18.612Z,17.42
2018-12-06T02:25:46.980Z,16.23
2018-12-06T02:28:19.468Z,16.80
2018-12-06T02:30:48.193Z,16.65
2018-12-06T02:33:17.246Z,18.57
2018-12-06T02:35:45.708Z,16.95
2018-12-06T02:38:14.080Z,18.23
2018-12-06T02:40:42.415Z,16.65
2018-12-06T02:43:11.113Z,15.88
2018-12-06T02:45:39.698Z,18.35
2018-12-06T02:48:08.035Z,15.98
2018-12-06T02:50:36.371Z,19.15
2018-12-06T02:53:04.745Z,16.35
2018-12-06T02:55:33.146Z,15.45
2018-12-06T02:58:01.459Z,15.05
2018-12-06T03:00:29.869Z,18.55
2018-12-06T03:02:58.202Z,16.52
2018-12-06T03:05:26.587Z,16.75
2018-12-06T03:07:55.103Z,17.17
2018-12-06T03:10:24.119Z,16.30
2018-12-06T03:12:52.444Z,16.87
2018-12-06T03:15:21.114Z,17.05
2018-12-06T03:17:49.798Z,14.38
2018-12-06T03:20:18.701Z,19.48
2018-12-06T03:22:47.302Z,14.60
2018-12-06T03:25:16.161Z,15.95
2018-12-06T03:27:44.576Z,17.05
2018-12-06T03:30:13.016Z,15.60
2018-12-06T03:32:41.468Z,16.48
2018-12-06T03:35:09.952Z,19.23
2018-12-06T03:37:38.559Z,18.73
2018-12-06T03:40:07.379Z,15.40
2018-12-06T03:42:35.798Z,25.72
2018-12-06T03:45:05.205Z,16.50
2018-12-06T03:47:33.634Z,16.40
2018-12-06T03:50:01.945Z,20.23
2018-12-06T03:52:30.311Z,17.45
2018-12-06T03:54:58.682Z,19.05
2018-12-06T03:57:27.113Z,17.40
2018-12-06T03:59:55.439Z,16.95
2018-12-06T04:02:24.536Z,21.95
2018-12-06T04:04:52.896Z,16.35
2018-12-06T04:07:21.689Z,17.15
2018-12-06T04:09:50.426Z,16.95
2018-12-06T04:12:19.117Z,17.52
2018-12-06T04:14:47.756Z,16.73
2018-12-06T04:17:16.432Z,19.23
2018-12-06T04:19:44.926Z,17.95
2018-12-06T04:22:13.340Z,19.75
2018-12-06T04:24:41.778Z,17.92
2018-12-06T04:27:10.110Z,19.92
2018-12-06T04:29:38.549Z,19.02
2018-12-06T04:32:06.910Z,16.60
2018-12-06T04:34:35.282Z,19.70
2018-12-06T04:37:03.681Z,26.33
2018-12-06T04:39:32.141Z,19.10
2018-12-06T04:42:00.605Z,23.62
2018-12-06T04:44:28.981Z,17.35
2018-12-06T04:46:57.367Z,22.60
2018-12-06T04:49:26.426Z,20.75
2018-12-06T04:51:55.307Z,24.82
2018-12-06T04:54:24.196Z,21.12
2018-12-06T04:56:53.006Z,20.43
2018-12-06T04:59:21.672Z,23.95
2018-12-06T05:01:50.239Z,21.97
2018-12-06T05:04:18.800Z,18.75
2018-12-06T05:06:47.245Z,22.87
2018-12-06T05:09:15.687Z,21.57
2018-12-06T05:11:44.075Z,21.93
2018-12-06T05:14:12.504Z,23.32
2018-12-06T05:16:41.132Z,21.60
2018-12-06T05:19:09.577Z,22.75
2018-12-06T05:21:37.935Z,25.23
2018-12-06T05:24:06.355Z,25.55
2018-12-06T05:26:34.889Z,21.73
2018-12-06T05:29:03.321Z,25.50
2018-12-06T05:31:31.691Z,23.73
2018-12-06T05:34:00.119Z,21.60
2018-12-06T05:36:28.726Z,29.70
2018-12-06T05:38:57.127Z,25.35
2018-12-06T05:41:26.171Z,24.32
2018-12-06T05:43:54.520Z,27.52
2018-12-06T05:46:22.877Z,32.67
2018-12-06T05:48:51.248Z,30.90
2018-12-06T05:51:19.620Z,31.55
2018-12-06T05:53:48.004Z,28.23
2018-12-06T05:56:17.627Z,28.87
2018-12-06T05:58:52.968Z,25.85
2018-12-06T06:01:23.065Z,32.03
2018-12-06T06:03:51.817Z,31.52
2018-12-06T06:06:20.144Z,29.12
2018-12-06T06:08:48.558Z,31.23
2018-12-06T06:11:16.945Z,34.45
2018-12-06T06:13:45.348Z,29.72
2018-12-06T06:16:13.701Z,35.13
2018-12-06T06:18:42.179Z,35.35
2018-12-06T06:21:10.600Z,32.05
2018-12-06T06:23:38.968Z,38.50
2018-12-06T06:26:07.316Z,33.50
2018-12-06T06:28:35.703Z,39.50
2018-12-06T06:31:04.142Z,39.58
2018-12-06T06:33:32.496Z,41.33
2018-12-06T06:36:00.866Z,40.28
2018-12-06T06:38:29.946Z,41.35
2018-12-06T06:40:58.341Z,36.00
2018-12-06T06:43:26.706Z,42.33
2018-12-06T06:45:55.128Z,42.62
2018-12-06T06:48:23.483Z,41.13
2018-12-06T06:50:51.964Z,41.60
2018-12-06T06:53:20.332Z,42.60
2018-12-06T06:55:48.754Z,39.92
2018-12-06T06:58:17.098Z,39.08
2018-12-06T07:00:45.474Z,42.60
2018-12-06T07:03:13.882Z,44.65
2018-12-06T07:05:42.295Z,39.23
2018-12-06T07:08:10.769Z,44.38
2018-12-06T07:10:39.173Z,41.48
2018-12-06T07:13:07.613Z,49.65
2018-12-06T07:15:35.996Z,43.00
2018-12-06T07:18:04.506Z,36.40
2018-12-06T07:20:33.127Z,44.70
2018-12-06T07:23:01.561Z,42.83
2018-12-06T07:25:30.012Z,43.02
2018-12-06T07:27:58.369Z,53.20
2018-12-06T07:30:26.852Z,44.25
2018-12-06T07:32:55.190Z,40.78
2018-12-06T07:35:23.792Z,37.90
2018-12-06T07:37:52.725Z,51.15
2018-12-06T07:40:21.062Z,41.60
2018-12-06T07:42:49.583Z,40.08
2018-12-06T07:45:18.017Z,46.95
2018-12-06T07:47:46.482Z,39.00
2018-12-06T07:50:15.060Z,39.98
2018-12-06T07:52:43.626Z,39.53
2018-12-06T07:55:12.070Z,42.43
2018-12-06T07:57:40.692Z,38.90
2018-12-06T08:00:09.571Z,37.20
2018-12-06T08:02:37.915Z,35.17
2018-12-06T08:05:07.157Z,36.93
2018-12-06T08:07:35.712Z,39.90
2018-12-06T08:10:04.644Z,44.95
2018-12-06T08:12:33.016Z,40.03
2018-12-06T08:15:01.388Z,37.53
2018-12-06T08:17:29.829Z,41.55
2018-12-06T08:19:58.208Z,47.23
2018-12-06T08:22:26.685Z,38.35
2018-12-06T08:24:55.254Z,55.60
2018-12-06T08:27:23.717Z,41.42
2018-12-06T08:29:52.079Z,43.60
2018-12-06T08:32:20.549Z,44.90
2018-12-06T08:34:48.944Z,52.80
2018-12-06T08:37:17.281Z,48.35
2018-12-06T08:39:45.768Z,40.58
2018-12-06T08:42:14.153Z,43.08
2018-12-06T08:44:42.550Z,45.52
2018-12-06T08:47:10.902Z,38.15
2018-12-06T08:49:39.291Z,46.88
2018-12-06T08:52:07.652Z,42.90
2018-12-06T08:54:35.992Z,43.55
2018-12-06T08:57:04.462Z,42.30
2018-12-06T08:59:32.842Z,44.35
2018-12-06T09:02:02.709Z,41.92
2018-12-06T09:04:31.087Z,46.48
2018-12-06T09:06:59.461Z,40.35
2018-12-06T09:09:27.832Z,50.08
2018-12-06T09:11:56.264Z,43.15
2018-12-06T09:14:25.239Z,50.95
2018-12-06T09:16:53.963Z,42.88
2018-12-06T09:19:22.681Z,44.03
2018-12-06T09:21:51.056Z,45.67
2018-12-06T09:24:19.486Z,40.95
2018-12-06T09:26:47.895Z,53.60
2018-12-06T09:29:16.239Z,39.20
2018-12-06T09:31:44.608Z,45.17
2018-12-06T09:34:12.950Z,36.13
2018-12-06T09:36:41.277Z,39.50
2018-12-06T09:39:10.235Z,40.45
2018-12-06T09:41:38.643Z,47.05
2018-12-06T09:44:07.107Z,38.30
2018-12-06T09:46:35.515Z,54.03
2018-12-06T09:49:04.862Z,53.48
2018-12-06T09:51:33.324Z,43.85
2018-12-06T09:54:01.987Z,47.70
2018-12-06T09:56:30.310Z,46.37
2018-12-06T09:58:58.789Z,42.60
2018-12-06T10:01:27.128Z,41.00
2018-12-06T10:03:55.838Z,40.78
2018-12-06T10:06:24.197Z,46.50
2018-12-06T10:08:52.656Z,48.25
2018-12-06T10:11:20.996Z,47.35
2018-12-06T10:13:49.460Z,44.08
2018-12-06T10:16:17.827Z,46.13
2018-12-06T10:18:46.224Z,51.08
2018-12-06T10:21:14.642Z,48.45
2018-12-06T10:23:43.069Z,44.55
2018-12-06T10:26:11.515Z,47.73
2018-12-06T10:28:41.661Z,47.75
2018-12-06T10:31:10.210Z,40.70
2018-12-06T10:33:38.796Z,43.35
2018-12-06T10:36:07.207Z,48.90
2018-12-06T10:38:35.586Z,46.30
2018-12-06T10:41:04.008Z,45.85
2018-12-06T10:43:32.439Z,50.17
2018-12-06T10:46:00.925Z,47.17
2018-12-06T10:48:29.300Z,52.23
2018-12-06T10:51:09.060Z,49.55
2018-12-06T10:53:37.591Z,55.38
2018-12-06T10:56:05.962Z,51.08
2018-12-06T10:58:34.367Z,51.25
2018-12-06T11:01:09.136Z,46.28
2018-12-06T11:03:43.035Z,42.23
2018-12-06T11:06:11.464Z,46.23
2018-12-06T11:08:39.793Z,41.77
2018-12-06T11:11:08.148Z,48.75
2018-12-06T11:13:36.513Z,43.92
2018-12-06T11:16:04.938Z,43.78
2018-12-06T11:18:33.388Z,46.13
2018-12-06T11:21:01.776Z,51.25
2018-12-06T11:23:30.129Z,43.92
2018-12-06T11:25:58.527Z,52.62
2018-12-06T11:28:26.882Z,44.93
2018-12-06T11:30:55.257Z,48.48
2018-12-06T11:33:23.779Z,51.83
2018-12-06T11:35:52.131Z,47.30
2018-12-06T11:38:20.533Z,52.10
2018-12-06T11:40:48.900Z,53.63
2018-12-06T11:43:17.245Z,51.73
2018-12-06T11:45:45.646Z,45.90
2018-12-06T11:48:13.988Z,47.38
2018-12-06T11:50:42.400Z,72.97
2018-12-06T11:53:10.862Z,47.00
2018-12-06T11:55:39.254Z,52.62
2018-12-06T11:58:11.443Z,50.05
2018-12-06T12:00:38.013Z,49.60
2018-12-06T12:03:06.524Z,47.43
2018-12-06T12:05:38.127Z,44.00
2018-12-06T12:08:06.480Z,51.95
2018-12-06T12:10:35.022Z,45.58
2018-12-06T12:13:03.531Z,51.85
2018-12-06T12:15:32.138Z,51.35
2018-12-06T12:18:00.572Z,43.73
2018-12-06T12:20:28.948Z,37.67
2018-12-06T12:22:57.336Z,40.73
2018-12-06T12:25:25.732Z,55.08
2018-12-06T12:27:54.130Z,49.15
2018-12-06T12:30:22.532Z,42.23
2018-12-06T12:32:50.943Z,41.90
2018-12-06T12:35:19.309Z,38.08
2018-12-06T12:37:47.692Z,48.02
2018-12-06T12:40:16.281Z,38.67
2018-12-06T12:42:44.641Z,38.45
2018-12-06T12:45:13.270Z,35.63
2018-12-06T12:47:41.648Z,38.67
2018-12-06T12:50:10.277Z,37.03
2018-12-06T12:52:38.626Z,39.23
2018-12-06T12:55:07.025Z,41.58
2018-12-06T12:57:35.392Z,41.08
2018-12-06T13:00:04.387Z,38.90
2018-12-06T13:02:32.795Z,38.10
2018-12-06T13:05:01.162Z,37.78
2018-12-06T13:07:29.625Z,39.80
2018-12-06T13:09:58.073Z,41.80
2018-12-06T13:12:26.453Z,38.20
2018-12-06T13:14:54.816Z,38.38
2018-12-06T13:17:23.297Z,33.63
2018-12-06T13:19:51.654Z,39.92
2018-12-06T13:22:20.004Z,34.98
2018-12-06T13:24:48.332Z,42.65
2018-12-06T13:27:16.753Z,40.52
2018-12-06T13:29:45.100Z,39.20
2018-12-06T13:32:13.569Z,39.60
2018-12-06T13:34:41.919Z,36.77
2018-12-06T13:37:10.294Z,42.75
2018-12-06T13:39:38.726Z,39.80
2018-12-06T13:42:07.306Z,41.23
2018-12-06T13:44:35.798Z,41.30
2018-12-06T13:47:04.420Z,36.88
2018-12-06T13:49:32.849Z,44.35
2018-12-06T13:52:09.730Z,36.40
2018-12-06T13:54:38.604Z,36.28
2018-12-06T13:57:07.443Z,36.40
2018-12-06T13:59:36.898Z,34.90
2018-12-06T14:02:05.666Z,39.55
2018-12-06T14:04:34.786Z,39.60
2018-12-06T14:07:03.630Z,39.83
2018-12-06T14:09:32.131Z,37.63
2018-12-06T14:12:00.731Z,34.33
2018-12-06T14:14:29.315Z,31.23
2018-12-06T14:16:57.910Z,35.70
2018-12-06T14:19:26.493Z,30.43
2018-12-06T14:21:55.214Z,35.25
2018-12-06T14:24:23.748Z,36.75
2018-12-06T14:26:52.250Z,31.70
2018-12-06T14:29:20.872Z,33.88
2018-12-06T14:31:49.622Z,31.23
2018-12-06T14:34:18.145Z,33.60
2018-12-06T14:36:46.585Z,31.50
2018-12-06T14:39:15.016Z,35.00
2018-12-06T14:41:43.393Z,29.42
2018-12-06T14:44:11.805Z,36.35
2018-12-06T14:46:40.209Z,31.50
2018-12-06T14:49:08.726Z,38.78
2018-12-06T14:51:37.112Z,33.88
2018-12-06T14:54:05.547Z,34.75
2018-12-06T14:56:33.952Z,35.08
2018-12-06T14:59:02.375Z,37.40
2018-12-06T15:01:30.779Z,38.15
2018-12-06T15:03:59.210Z,37.23
2018-12-06T15:06:27.719Z,34.73
2018-12-06T15:08:56.081Z,30.25
2018-12-06T15:11:24.495Z,33.53
2018-12-06T15:13:52.908Z,29.45
2018-12-06T15:16:21.347Z,31.45
2018-12-06T15:18:49.789Z,29.32
2018-12-06T15:21:18.177Z,30.05
2018-12-06T15:23:46.576Z,28.47
2018-12-06T15:26:15.060Z,28.02
2018-12-06T15:28:43.589Z,26.52
2018-12-06T15:31:12.020Z,31.73
2018-12-06T15:33:40.531Z,28.47
2018-12-06T15:36:08.921Z,26.85
2018-12-06T15:38:37.326Z,25.35
2018-12-06T15:41:05.881Z,22.10
2018-12-06T15:43:34.309Z,25.37
2018-12-06T15:46:02.733Z,24.47
2018-12-06T15:48:31.118Z,25.97
2018-12-06T15:50:59.520Z,23.87
2018-12-06T15:53:27.941Z,23.15
2018-12-06T15:55:57.336Z,23.05
2018-12-06T15:58:25.726Z,22.27
2018-12-06T16:00:54.067Z,25.37
2018-12-06T16:03:22.466Z,20.65
2018-12-06T16:05:50.941Z,24.50
2018-12-06T16:08:19.409Z,23.40
2018-12-06T16:10:48.206Z,25.72
2018-12-06T16:13:16.711Z,23.10
2018-12-06T16:15:45.091Z,21.70
2018-12-06T16:18:13.516Z,29.80
2018-12-06T16:20:41.859Z,22.20
2018-12-06T16:23:10.282Z,27.87
2018-12-06T16:25:38.641Z,22.32
2018-12-06T16:28:07.029Z,21.42
2018-12-06T16:30:35.421Z,22.07
2018-12-06T16:33:03.767Z,21.48
2018-12-06T16:35:32.267Z,22.37
2018-12-06T16:38:00.647Z,17.90
2018-12-06T16:40:29.092Z,17.65
2018-12-06T16:42:57.718Z,21.07
2018-12-06T16:45:26.138Z,20.20
2018-12-06T16:47:54.590Z,21.85
2018-12-06T16:50:22.954Z,16.82
2018-12-06T16:52:51.426Z,20.43
2018-12-06T16:55:19.933Z,16.23
2018-12-06T16:57:48.317Z,18.23
2018-12-06T17:00:16.693Z,15.80
2018-12-06T17:02:45.381Z,17.25
2018-12-06T17:05:13.779Z,16.12
2018-12-06T17:07:42.404Z,21.95
2018-12-06T17:10:11.399Z,16.95
2018-12-06T17:12:40.225Z,15.32
2018-12-06T17:15:08.865Z,16.23
2018-12-06T17:17:37.293Z,20.30
2018-12-06T17:20:06.939Z,14.75
2018-12-06T17:22:35.492Z,15.55
2018-12-06T17:25:04.360Z,15.88
2018-12-06T17:27:32.843Z,14.58
2018-12-06T17:30:01.715Z,13.03
2018-12-06T17:32:30.166Z,22.07
2018-12-06T17:34:58.820Z,14.80
2018-12-06T17:37:27.228Z,18.17
2018-12-06T17:39:55.911Z,15.40
2018-12-06T17:42:24.582Z,14.63
2018-12-06T17:44:52.979Z,15.30
2018-12-06T17:47:21.395Z,14.53
2018-12-06T17:49:50.097Z,16.45
2018-12-06T17:52:18.769Z,18.10
2018-12-06T17:54:47.252Z,17.12
2018-12-06T17:57:15.808Z,15.48
2018-12-06T17:59:44.436Z,14.47
2018-12-06T18:02:12.944Z,16.48
2018-12-06T18:04:41.468Z,13.88
2018-12-06T18:07:09.879Z,14.30
2018-12-06T18:09:38.262Z,14.83
2018-12-06T18:12:06.697Z,13.62
2018-12-06T18:14:35.089Z,16.12
2018-12-06T18:17:03.465Z,17.75
2018-12-06T18:19:31.846Z,15.90
2018-12-06T18:22:01.500Z,17.37
2018-12-06T18:24:29.907Z,15.60
2018-12-06T18:26:58.311Z,14.65
2018-12-06T18:29:26.731Z,14.73
2018-12-06T18:31:55.130Z,12.47
2018-12-06T18:34:23.538Z,14.73
2018-12-06T18:36:51.914Z,15.98
2018-12-06T18:39:20.439Z,12.40
2018-12-06T18:41:48.801Z,17.90
2018-12-06T18:44:17.286Z,15.60
2018-12-06T18:46:45.709Z,16.32
2018-12-06T18:49:14.252Z,13.10
2018-12-06T18:51:42.657Z,15.95
2018-12-06T18:54:11.162Z,12.95
2018-12-06T18:56:39.582Z,15.18
2018-12-06T18:59:08.313Z,13.53
2018-12-06T19:01:36.815Z,17.05
2018-12-06T19:04:05.183Z,15.78
2018-12-06T19:06:43.628Z,13.88
2018-12-06T19:09:12.509Z,15.90
2018-12-06T19:11:41.109Z,18.83
2018-12-06T19:14:09.658Z,16.20
2018-12-06T19:16:38.088Z,17.40
2018-12-06T19:19:06.551Z,13.90
2018-12-06T19:21:35.233Z,14.15
2018-12-06T19:24:04.191Z,14.00
2018-12-06T19:26:32.585Z,13.83
2018-12-06T19:29:01.142Z,15.70
2018-12-06T19:31:29.925Z,12.95
2018-12-06T19:33:58.412Z,16.25
2018-12-06T19:36:27.148Z,12.78
2018-12-06T19:38:55.929Z,12.73
2018-12-06T19:41:24.376Z,12.78
2018-12-06T19:43:52.737Z,13.30
2018-12-06T19:46:21.108Z,15.85
2018-12-06T19:48:49.812Z,13.85
2018-12-06T19:51:18.211Z,11.45
2018-12-06T19:53:47.027Z,14.13
2018-12-06T19:56:15.437Z,12.10
2018-12-06T19:58:44.179Z,11.70
2018-12-06T20:01:12.980Z,11.75
2018-12-06T20:03:41.427Z,13.70
2018-12-06T20:06:10.109Z,14.00
2018-12-06T20:08:38.620Z,11.40
2018-12-06T20:11:07.558Z,13.95
2018-12-06T20:13:36.020Z,11.00
2018-12-06T20:16:04.666Z,11.48
2018-12-06T20:18:33.388Z,10.72
2018-12-06T20:21:02.101Z,11.65
2018-12-06T20:23:31.485Z,13.10
2018-12-06T20:26:00.152Z,13.03
2018-12-06T20:28:28.645Z,11.20
2018-12-06T20:30:57.406Z,15.20
2018-12-06T20:33:25.825Z,9.43
2018-12-06T20:35:54.266Z,10.80
2018-12-06T20:38:22.650Z,10.23
2018-12-06T20:40:51.049Z,9.90
2018-12-06T20:43:19.449Z,9.78
2018-12-06T20:45:47.841Z,11.03
2018-12-06T20:48:16.248Z,14.05
2018-12-06T20:50:49.390Z,10.53
2018-12-06T20:53:15.169Z,10.10
2018-12-06T20:55:44.402Z,10.40
2018-12-06T20:58:15.090Z,10.18
2018-12-06T21:00:43.289Z,9.95
2018-12-06T21:03:11.680Z,9.20
2018-12-06T21:05:40.161Z,8.68
2018-12-06T21:08:08.683Z,9.77
2018-12-06T21:10:37.331Z,9.93
2018-12-06T21:13:05.805Z,11.18
2018-12-06T21:15:34.196Z,11.80
2018-12-06T21:18:02.655Z,13.15
2018-12-06T21:20:31.174Z,10.18
2018-12-06T21:22:59.584Z,11.30
2018-12-06T21:25:33.199Z,11.60
2018-12-06T21:28:02.409Z,12.70
2018-12-06T21:30:30.894Z,10.70
2018-12-06T21:32:59.253Z,10.20
2018-12-06T21:35:27.695Z,9.95
2018-12-06T21:37:56.101Z,10.97
2018-12-06T21:40:24.491Z,9.67
2018-12-06T21:42:52.820Z,8.90
2018-12-06T21:45:21.312Z,10.10
2018-12-06T21:47:49.756Z,9.27
2018-12-06T21:50:18.158Z,9.10
2018-12-06T21:52:46.552Z,8.77
2018-12-06T21:55:14.964Z,9.50
2018-12-06T21:57:43.405Z,9.40
2018-12-06T22:00:12.217Z,10.25
2018-12-06T22:02:40.639Z,8.35
2018-12-06T22:05:09.092Z,8.53
2018-12-06T22:07:37.477Z,8.50
2018-12-06T22:10:07.140Z,7.22
2018-12-06T22:12:35.534Z,6.80
2018-12-06T22:15:04.196Z,8.40
2018-12-06T22:17:32.601Z,7.53
2018-12-06T22:20:01.061Z,7.07
2018-12-06T22:22:30.004Z,7.10
2018-12-06T22:24:58.376Z,7.90
2018-12-06T22:27:26.807Z,7.37
2018-12-06T22:29:55.247Z,8.53
2018-12-06T22:32:23.690Z,7.42
2018-12-06T22:34:52.209Z,6.20
2018-12-06T22:37:20.622Z,6.57
2018-12-06T22:39:49.056Z,6.45
2018-12-06T22:42:17.443Z,6.03
2018-12-06T22:44:45.806Z,6.15
2018-12-06T22:47:14.199Z,6.50
2018-12-06T22:49:42.688Z,6.95
2018-12-06T22:52:11.108Z,5.77
2018-12-06T22:54:39.526Z,6.15
2018-12-06T22:57:07.894Z,6.08
2018-12-06T22:59:40.658Z,9.73
2018-12-06T23:02:09.037Z,8.88
2018-12-06T23:04:37.568Z,6.70
2018-12-06T23:07:06.001Z,7.97
2018-12-06T23:09:34.426Z,6.65
2018-12-06T23:12:02.848Z,8.13
2018-12-06T23:14:31.358Z,7.30
2018-12-06T23:16:59.698Z,7.58
2018-12-06T23:19:28.088Z,6.83
2018-12-06T23:21:56.482Z,7.40
2018-12-06T23:24:24.824Z,6.90
2018-12-06T23:26:53.452Z,6.15
2018-12-06T23:29:21.793Z,6.43
2018-12-06T23:31:50.165Z,6.83
2018-12-06T23:34:18.557Z,8.27
2018-12-06T23:36:46.918Z,7.13
2018-12-06T23:39:15.277Z,6.20
2018-12-06T23:41:43.660Z,7.93
2018-12-06T23:44:12.128Z,7.80
2018-12-06T23:46:40.489Z,8.00
2018-12-06T23:49:08.885Z,7.07
2018-12-06T23:51:38.779Z,6.77
2018-12-06T23:54:07.309Z,8.50
2018-12-06T23:56:35.711Z,4.73
2018-12-06T23:59:04.207Z,6.17
